Main page
METAR-TAF:

METAR-TAF

Airports :

Kassel Airport

Kassel, Germany

latitude: 51-24N, longitude: 009-23E, elevation: 277 m

Current weather observation

The report was made 26 minutes ago, at 12:20 UTC
Wind 5 kt from the North/Northwest, varying between West/Northwest and North/Northeast
Temperature 14°C
Humidity 77%
Pressure 1023 hPa
Visibility: 9000 m
Broken clouds at a height of 1800 ft
Broken clouds at a height of 3600 ft

METAR: EDVK 181220Z 34005KT 300V030 9000 BKN018 BKN036 14/10 Q1023

Time: 14:46 (12:46 UTC)

Forecast

The report was made 1 hour and 46 minutes ago, at 11:00 UTC
Forecast valid from 18 at 12 UTC to 18 at 21 UTC
Wind 6 kt from the North/Northwest
Visibility: 4500 m
Broken clouds at a height of 700 ft
mist
Becoming
from 18 at 12 UTC to 18 at 13 UTC
Visibility: 6000 m
Scattered clouds at a height of 700 ft

TAF: EDVK 181100Z 1812/1821 34006KT 4500 BR BKN007 BECMG 1812/1813 6000 SCT007

Weather observations and forecasts of more than 4000 airports (METAR and TAF reports).

The available stations are represented by yellow and red dots on the map.

Hover mouse over dot to see the name of the station.

Then click to see weather observations and forecasts.

To change the map : click on the green buttons with a black cross to zoom in, on the green button with a dash to zoom out, or on the green arrows for adjacent maps.


METAR-TAF: